Time;durP1;ratioP1;P1;durP2;ratioP2;P2;SDS_P1;SDS_P2;PMS_P1;PMS_P2;Temp;Humidity;BMP_temperature;BMP_pressure;BME280_temperature;BME280_humidity;BME280_pressure;Samples;Min_cycle;Max_cycle;Signal;HPM_P1;HPM_P2
2022/05/11 00:01:22;;;;;;;33.20;7.60;;;;;;;;;;6150255;23;20052;-59
2022/05/11 00:03:56;;;;;;;32.42;8.05;;;;;;;;;;6150821;23;20688;-63
2022/05/11 00:06:36;;;;;;;32.92;6.82;;;;;;;;;;6149071;23;20057;-57
2022/05/11 00:09:11;;;;;;;24.30;6.95;;;;;;;;;;6150614;23;20341;-58
2022/05/11 00:11:37;;;;;;;33.78;8.00;;;;;;;;;;6149881;23;20030;-57
2022/05/11 00:14:05;;;;;;;39.97;6.95;;;;;;;;;;6150205;23;20026;-55
2022/05/11 00:16:38;;;;;;;40.42;7.40;;;;;;;;;;6150605;23;20084;-58
2022/05/11 00:19:05;;;;;;;40.40;8.52;;;;;;;;;;6151376;23;20029;-56
2022/05/11 00:21:31;;;;;;;33.95;6.95;;;;;;;;;;6149088;23;20072;-63
2022/05/11 00:24:04;;;;;;;44.38;7.55;;;;;;;;;;6150954;23;20080;-56
2022/05/11 00:26:30;;;;;;;38.40;6.80;;;;;;;;;;6150261;23;20105;-61
2022/05/11 00:28:57;;;;;;;48.67;8.27;;;;;;;;;;6150926;23;20017;-61
2022/05/11 00:31:30;;;;;;;34.08;6.78;;;;;;;;;;6150144;23;20037;-61
2022/05/11 00:33:58;;;;;;;38.22;7.95;;;;;;;;;;6151376;23;20087;-61
2022/05/11 00:36:25;;;;;;;35.65;7.78;;;;;;;;;;6149934;23;20029;-61
2022/05/11 00:38:58;;;;;;;34.60;7.50;;;;;;;;;;6149652;23;20332;-61
2022/05/11 00:41:24;;;;;;;34.80;7.97;;;;;;;;;;6149632;23;20372;-60
2022/05/11 00:43:53;;;;;;;34.75;7.85;;;;;;;;;;6150628;23;20045;-55
2022/05/11 00:46:37;;;;;;;32.85;6.45;;;;;;;;;;6150217;23;20076;-55
2022/05/11 00:52:06;;;;;;;49.42;7.90;;;;;;;;;;6150026;23;20021;-55
2022/05/11 00:54:34;;;;;;;28.55;6.82;;;;;;;;;;6150307;23;20073;-54
2022/05/11 00:57:11;;;;;;;29.17;7.40;;;;;;;;;;6150960;23;20029;-53
2022/05/11 00:59:40;;;;;;;35.88;7.13;;;;;;;;;;6150087;23;20022;-61
2022/05/11 01:02:06;;;;;;;34.25;7.22;;;;;;;;;;6150023;23;20033;-58
2022/05/11 01:04:40;;;;;;;36.33;6.82;;;;;;;;;;6149997;23;20066;-59
2022/05/11 01:07:13;;;;;;;34.83;7.22;;;;;;;;;;6148181;23;20021;-58
2022/05/11 01:09:46;;;;;;;36.03;7.40;;;;;;;;;;6150066;23;20033;-59
2022/05/11 01:12:15;;;;;;;30.92;6.72;;;;;;;;;;6149710;23;20094;-60
2022/05/11 01:14:43;;;;;;;29.10;6.63;;;;;;;;;;6150989;23;20026;-59
2022/05/11 01:17:16;;;;;;;37.58;7.10;;;;;;;;;;6149521;23;20025;-59
2022/05/11 01:19:44;;;;;;;31.23;7.03;;;;;;;;;;6149927;23;20529;-59
2022/05/11 01:22:10;;;;;;;31.45;8.05;;;;;;;;;;6151034;23;20095;-61
2022/05/11 01:24:45;;;;;;;27.00;7.20;;;;;;;;;;6151981;23;20479;-61
2022/05/11 01:27:22;;;;;;;39.33;7.47;;;;;;;;;;6152040;23;20044;-61
2022/05/11 01:29:57;;;;;;;34.30;7.10;;;;;;;;;;6152626;23;20022;-61
2022/05/11 01:32:23;;;;;;;30.55;7.40;;;;;;;;;;6150946;23;20022;-61
2022/05/11 01:34:53;;;;;;;32.95;7.63;;;;;;;;;;6150889;23;20483;-61
2022/05/11 01:37:26;;;;;;;31.10;7.38;;;;;;;;;;6151700;23;20052;-60
2022/05/11 01:39:52;;;;;;;44.10;8.30;;;;;;;;;;6148812;23;20025;-56
2022/05/11 01:42:20;;;;;;;39.08;7.97;;;;;;;;;;6151531;23;20408;-61
2022/05/11 01:44:54;;;;;;;34.10;7.28;;;;;;;;;;6152691;23;20076;-61
2022/05/11 01:47:21;;;;;;;36.42;8.02;;;;;;;;;;6151607;23;20668;-60
2022/05/11 01:49:47;;;;;;;41.70;8.38;;;;;;;;;;6151313;23;20022;-61
2022/05/11 01:52:20;;;;;;;44.00;8.80;;;;;;;;;;6151438;23;20025;-61
2022/05/11 01:54:46;;;;;;;40.78;8.30;;;;;;;;;;6151026;23;20056;-61
2022/05/11 01:57:13;;;;;;;41.88;8.77;;;;;;;;;;6152551;23;20033;-56
2022/05/11 01:59:46;;;;;;;39.28;8.30;;;;;;;;;;6151782;23;20032;-54
2022/05/11 02:02:12;;;;;;;38.40;8.68;;;;;;;;;;6151689;23;20025;-59
2022/05/11 02:07:51;;;;;;;41.35;8.77;;;;;;;;;;6149699;23;20367;-60
2022/05/11 02:10:25;;;;;;;46.15;9.27;;;;;;;;;;6151922;23;20029;-59
2022/05/11 02:12:58;;;;;;;32.00;8.73;;;;;;;;;;6151594;23;20022;-58
2022/05/11 02:15:26;;;;;;;39.53;9.57;;;;;;;;;;6151607;23;20057;-59
2022/05/11 02:17:53;;;;;;;;;;;;;;;;;;6151666;23;20033;-62
2022/05/11 02:20:26;;;;;;;39.72;8.73;;;;;;;;;;6151211;23;19928;-58
2022/05/11 02:22:52;;;;;;;37.45;8.90;;;;;;;;;;6151553;23;20049;-57
2022/05/11 02:25:19;;;;;;;39.10;9.93;;;;;;;;;;6151782;23;20087;-59
2022/05/11 02:27:53;;;;;;;41.10;10.23;;;;;;;;;;6150811;23;20025;-58
2022/05/11 02:30:22;;;;;;;48.45;10.15;;;;;;;;;;6151970;23;20088;-57
2022/05/11 02:32:48;;;;;;;40.38;11.25;;;;;;;;;;6151563;23;20030;-57
2022/05/11 02:35:22;;;;;;;41.70;10.10;;;;;;;;;;6152197;23;20045;-53
2022/05/11 02:37:48;;;;;;;45.35;10.02;;;;;;;;;;6150541;23;20025;-61
2022/05/11 02:40:16;;;;;;;40.65;9.32;;;;;;;;;;6149889;23;20068;-57
2022/05/11 02:42:49;;;;;;;25.67;9.00;;;;;;;;;;6150583;23;20072;-54
2022/05/11 02:45:16;;;;;;;44.92;10.70;;;;;;;;;;6151513;23;20049;-54
2022/05/11 02:47:45;;;;;;;36.17;10.73;;;;;;;;;;6149281;23;20025;-54
2022/05/11 02:50:20;;;;;;;39.03;11.48;;;;;;;;;;6151341;23;20080;-52
2022/05/11 02:52:47;;;;;;;36.80;11.00;;;;;;;;;;6150867;23;20022;-54
2022/05/11 02:55:15;;;;;;;44.47;12.47;;;;;;;;;;6150425;23;20057;-61
2022/05/11 02:57:49;;;;;;;41.78;12.48;;;;;;;;;;6151254;23;20033;-54
2022/05/11 03:00:16;;;;;;;44.47;11.48;;;;;;;;;;6150413;23;20022;-57
2022/05/11 03:02:43;;;;;;;40.88;11.60;;;;;;;;;;6150727;23;20073;-55
2022/05/11 03:05:16;;;;;;;38.78;11.95;;;;;;;;;;6151536;23;20428;-55
2022/05/11 03:07:49;;;;;;;37.08;12.05;;;;;;;;;;6150032;23;20029;-54
2022/05/11 03:10:23;;;;;;;39.35;11.05;;;;;;;;;;6151489;23;20475;-54
2022/05/11 03:12:50;;;;;;;40.60;11.57;;;;;;;;;;6150196;23;20621;-61
2022/05/11 03:15:16;;;;;;;36.17;11.52;;;;;;;;;;6150910;23;20076;-56
2022/05/11 03:17:50;;;;;;;39.33;10.77;;;;;;;;;;6150890;23;20029;-55
2022/05/11 03:20:18;;;;;;;45.80;13.15;;;;;;;;;;6151298;23;20021;-53
2022/05/11 03:22:50;;;;;;;37.83;11.90;;;;;;;;;;6149402;23;20302;-57
2022/05/11 03:25:24;;;;;;;30.52;11.70;;;;;;;;;;6150624;23;20029;-55
2022/05/11 03:27:51;;;;;;;37.13;11.73;;;;;;;;;;6150142;23;20486;-56
2022/05/11 03:30:19;;;;;;;49.47;12.90;;;;;;;;;;6151612;23;20022;-55
2022/05/11 03:35:46;;;;;;;31.45;12.32;;;;;;;;;;6151397;23;20030;-57
2022/05/11 03:38:19;;;;;;;48.40;13.32;;;;;;;;;;6151077;23;20033;-55
2022/05/11 03:40:45;;;;;;;38.03;12.88;;;;;;;;;;6151000;23;20022;-56
2022/05/11 03:43:12;;;;;;;46.67;14.18;;;;;;;;;;6150086;23;20026;-57
2022/05/11 03:45:45;;;;;;;35.03;13.23;;;;;;;;;;6150629;23;20052;-57
2022/05/11 03:48:12;;;;;;;33.15;13.80;;;;;;;;;;6150938;23;20029;-55
2022/05/11 03:50:38;;;;;;;45.35;14.45;;;;;;;;;;6150414;23;20459;-56
2022/05/11 03:53:11;;;;;;;48.25;14.60;;;;;;;;;;6149435;23;20543;-53
2022/05/11 03:55:38;;;;;;;39.83;13.70;;;;;;;;;;6150156;23;20045;-61
2022/05/11 03:58:04;;;;;;;52.63;14.82;;;;;;;;;;6151036;23;20029;-61
2022/05/11 04:00:37;;;;;;;50.97;15.27;;;;;;;;;;6148375;23;20044;-62
2022/05/11 04:03:04;;;;;;;54.83;14.88;;;;;;;;;;6150743;23;20021;-61
2022/05/11 04:05:32;;;;;;;50.70;14.93;;;;;;;;;;6151037;23;20028;-61
2022/05/11 04:08:19;;;;;;;41.00;14.85;;;;;;;;;;6146801;23;20348;-61
2022/05/11 04:10:45;;;;;;;44.25;15.05;;;;;;;;;;6150611;23;20411;-61
2022/05/11 04:13:18;;;;;;;40.55;14.10;;;;;;;;;;6150383;23;20033;-62
2022/05/11 04:15:47;;;;;;;47.03;14.70;;;;;;;;;;6150814;23;20025;-63
2022/05/11 04:18:19;;;;;;;50.38;15.50;;;;;;;;;;6150738;23;20096;-63
2022/05/11 04:20:52;;;;;;;;;;;;;;;;;;6151341;23;20021;-63
2022/05/11 04:23:18;;;;;;;44.67;13.25;;;;;;;;;;6149790;23;20401;-62
2022/05/11 04:25:45;;;;;;;47.72;14.63;;;;;;;;;;6147744;23;20355;-63
2022/05/11 04:28:18;;;;;;;49.35;14.60;;;;;;;;;;6150104;23;20355;-63
2022/05/11 04:30:44;;;;;;;50.60;15.50;;;;;;;;;;6150712;23;20023;-58
2022/05/11 04:33:11;;;;;;;44.03;15.27;;;;;;;;;;6150350;23;20025;-61
2022/05/11 04:35:44;;;;;;;47.47;15.05;;;;;;;;;;6150173;23;20026;-61
2022/05/11 04:38:10;;;;;;;48.90;15.38;;;;;;;;;;6148828;23;20053;-61
2022/05/11 04:40:37;;;;;;;53.92;16.33;;;;;;;;;;6147838;23;20061;-62
2022/05/11 04:43:10;;;;;;;41.70;14.77;;;;;;;;;;6148691;23;20025;-61
2022/05/11 04:45:40;;;;;;;44.03;15.35;;;;;;;;;;6150153;23;20408;-62
2022/05/11 04:48:07;;;;;;;48.45;15.30;;;;;;;;;;6150961;23;20026;-54
2022/05/11 04:50:44;;;;;;;43.85;15.73;;;;;;;;;;6150020;23;20029;-59
2022/05/11 04:53:11;;;;;;;37.60;14.95;;;;;;;;;;6150950;23;20105;-61
2022/05/11 04:55:38;;;;;;;43.45;15.25;;;;;;;;;;6150937;23;20025;-61
2022/05/11 04:58:15;;;;;;;48.95;15.85;;;;;;;;;;6152495;23;20021;-61
2022/05/11 05:00:46;;;;;;;43.55;15.00;;;;;;;;;;6151520;23;20029;-61
2022/05/11 05:03:19;;;;;;;44.60;15.23;;;;;;;;;;6151065;23;20495;-61
2022/05/11 05:05:46;;;;;;;37.27;14.23;;;;;;;;;;6151437;23;20415;-61
2022/05/11 05:08:12;;;;;;;41.38;15.13;;;;;;;;;;6152208;23;20044;-58
2022/05/11 05:10:52;;;;;;;43.92;15.60;;;;;;;;;;6152402;23;20072;-56
2022/05/11 05:13:18;;;;;;;42.22;14.05;;;;;;;;;;6151782;23;20395;-57
2022/05/11 05:15:44;;;;;;;37.58;12.25;;;;;;;;;;6152022;23;20249;-54
2022/05/11 05:18:18;;;;;;;40.15;13.25;;;;;;;;;;6152290;23;20117;-51
2022/05/11 05:20:45;;;;;;;32.47;12.63;;;;;;;;;;6152398;23;20058;-57
2022/05/11 05:23:11;;;;;;;46.47;13.65;;;;;;;;;;6152354;23;20021;-54
2022/05/11 05:25:44;;;;;;;35.33;11.63;;;;;;;;;;6152487;23;20105;-54
2022/05/11 05:31:06;;;;;;;40.50;11.70;;;;;;;;;;6152488;23;20105;-61
2022/05/11 05:33:34;;;;;;;41.55;12.57;;;;;;;;;;6151894;23;20358;-61
2022/05/11 05:36:01;;;;;;;36.47;11.25;;;;;;;;;;6152013;23;20025;-62
2022/05/11 05:38:38;;;;;;;32.88;11.05;;;;;;;;;;6150870;23;20036;-62
2022/05/11 05:41:05;;;;;;;40.55;10.85;;;;;;;;;;6152661;23;20411;-62
2022/05/11 05:43:31;;;;;;;36.00;11.02;;;;;;;;;;6152223;23;20025;-62
2022/05/11 05:46:05;;;;;;;35.40;10.73;;;;;;;;;;6151844;23;20025;-60
2022/05/11 05:48:31;;;;;;;30.48;11.10;;;;;;;;;;6151864;23;20028;-62
2022/05/11 05:51:17;;;;;;;41.20;12.02;;;;;;;;;;6152332;23;20072;-57
2022/05/11 05:53:51;;;;;;;34.47;10.40;;;;;;;;;;6151830;23;20816;-55
2022/05/11 05:56:18;;;;;;;34.00;10.05;;;;;;;;;;6152925;23;20404;-56
2022/05/11 05:58:44;;;;;;;34.92;11.07;;;;;;;;;;6151688;23;20026;-56
2022/05/11 06:01:18;;;;;;;26.50;10.52;;;;;;;;;;6151913;23;20087;-57
2022/05/11 06:03:45;;;;;;;40.80;11.23;;;;;;;;;;6151689;23;20029;-56
2022/05/11 06:06:12;;;;;;;28.92;9.82;;;;;;;;;;6151942;23;20072;-63
2022/05/11 06:08:58;;;;;;;29.67;9.93;;;;;;;;;;6150227;23;20026;-54
2022/05/11 06:11:25;;;;;;;27.48;9.50;;;;;;;;;;6151676;23;20029;-54
2022/05/11 06:13:59;;;;;;;35.70;8.48;;;;;;;;;;6152451;23;20025;-54
2022/05/11 06:16:25;;;;;;;27.95;9.50;;;;;;;;;;6152441;23;20088;-58
2022/05/11 06:18:53;;;;;;;34.08;8.10;;;;;;;;;;6150605;23;20093;-57
2022/05/11 06:21:26;;;;;;;30.80;8.43;;;;;;;;;;6152107;23;20029;-56
2022/05/11 06:23:53;;;;;;;37.08;8.48;;;;;;;;;;6151645;23;20076;-58
2022/05/11 06:26:19;;;;;;;39.03;8.60;;;;;;;;;;6151917;23;20025;-57
2022/05/11 06:29:12;;;;;;;24.13;8.05;;;;;;;;;;6151819;23;20104;-58
2022/05/11 06:31:39;;;;;;;20.45;6.97;;;;;;;;;;6151216;23;20585;-58
2022/05/11 06:34:12;;;;;;;24.42;7.35;;;;;;;;;;6152006;23;20081;-55
2022/05/11 06:36:39;;;;;;;23.23;7.88;;;;;;;;;;6151552;23;20026;-58
2022/05/11 06:39:05;;;;;;;33.38;7.10;;;;;;;;;;6151370;23;20387;-57
2022/05/11 06:41:42;;;;;;;29.10;6.90;;;;;;;;;;6151813;23;20104;-58
2022/05/11 06:44:09;;;;;;;25.15;7.15;;;;;;;;;;6151790;23;20049;-63
2022/05/11 06:46:36;;;;;;;30.60;7.43;;;;;;;;;;6150772;23;20089;-61
2022/05/11 06:49:09;;;;;;;30.40;6.93;;;;;;;;;;6151890;23;20105;-61
2022/05/11 06:51:36;;;;;;;30.55;6.60;;;;;;;;;;6150829;23;20021;-61
2022/05/11 06:59:40;;;;;;;29.25;6.40;;;;;;;;;;6150576;23;20022;-61
2022/05/11 07:02:13;;;;;;;27.08;6.18;;;;;;;;;;6151123;23;20055;-54
2022/05/11 07:04:48;;;;;;;32.08;6.72;;;;;;;;;;6150698;23;20021;-63
2022/05/11 07:07:35;;;;;;;21.33;5.78;;;;;;;;;;6149429;23;20463;-61
2022/05/11 07:10:08;;;;;;;24.85;5.85;;;;;;;;;;6151668;23;20478;-61
2022/05/11 07:12:46;;;;;;;19.83;6.03;;;;;;;;;;6150714;23;20034;-58
2022/05/11 07:15:18;;;;;;;25.05;5.93;;;;;;;;;;6151067;23;20026;-58
2022/05/11 07:17:53;;;;;;;26.35;5.55;;;;;;;;;;6150903;23;20025;-58
2022/05/11 07:20:27;;;;;;;24.42;6.13;;;;;;;;;;6150598;23;20506;-58
2022/05/11 07:23:03;;;;;;;23.20;5.60;;;;;;;;;;6151103;23;20025;-57
2022/05/11 07:25:29;;;;;;;;;;;;;;;;;;6151140;23;20025;-58
2022/05/11 07:27:57;;;;;;;27.85;6.28;;;;;;;;;;6151535;23;19963;-58
2022/05/11 07:30:32;;;;;;;30.58;6.22;;;;;;;;;;6150781;23;20587;-57
2022/05/11 07:33:04;;;;;;;20.73;5.18;;;;;;;;;;6150862;23;20045;-58
2022/05/11 07:35:38;;;;;;;27.63;6.10;;;;;;;;;;6150842;23;20060;-57
2022/05/11 07:38:10;;;;;;;17.10;5.15;;;;;;;;;;6150723;23;20026;-59
2022/05/11 07:40:36;;;;;;;23.50;6.07;;;;;;;;;;6150710;23;20076;-61
2022/05/11 07:43:11;;;;;;;21.42;5.90;;;;;;;;;;6151583;23;20025;-60
2022/05/11 07:45:38;;;;;;;23.52;6.03;;;;;;;;;;6149914;23;20025;-60
2022/05/11 07:48:06;;;;;;;23.02;6.35;;;;;;;;;;6150082;23;20336;-60
2022/05/11 07:50:40;;;;;;;23.88;5.65;;;;;;;;;;6151240;23;20054;-60
2022/05/11 07:53:06;;;;;;;22.70;5.70;;;;;;;;;;6151296;23;20127;-60
2022/05/11 07:55:35;;;;;;;16.58;5.05;;;;;;;;;;6150117;23;20021;-60
2022/05/11 08:00:57;;;;;;;25.35;5.57;;;;;;;;;;6151317;23;20025;-65
2022/05/11 08:03:30;;;;;;;18.52;4.88;;;;;;;;;;6150662;23;20025;-59
2022/05/11 08:05:57;;;;;;;20.10;5.38;;;;;;;;;;6151001;23;20057;-59
2022/05/11 08:08:24;;;;;;;20.38;5.03;;;;;;;;;;6149996;23;20017;-59
2022/05/11 08:10:57;;;;;;;18.92;4.97;;;;;;;;;;6151213;23;20021;-59
2022/05/11 08:13:24;;;;;;;22.23;5.45;;;;;;;;;;6149866;23;20026;-58
2022/05/11 08:15:50;;;;;;;22.80;5.50;;;;;;;;;;6150508;23;20048;-55
2022/05/11 08:18:23;;;;;;;21.02;6.22;;;;;;;;;;6150657;23;20069;-57
2022/05/11 08:20:50;;;;;;;22.92;5.90;;;;;;;;;;6150181;23;20052;-59
2022/05/11 08:23:16;;;;;;;18.00;5.32;;;;;;;;;;6149701;23;20022;-58
2022/05/11 08:25:54;;;;;;;25.58;6.10;;;;;;;;;;6151011;23;20022;-58
2022/05/11 08:28:21;;;;;;;24.20;5.05;;;;;;;;;;6150320;23;20076;-58
2022/05/11 08:33:41;;;;;;;18.10;5.50;;;;;;;;;;6153420;23;20025;-58
2022/05/11 08:36:28;;;;;;;20.80;5.40;;;;;;;;;;6153930;23;20077;-58
2022/05/11 08:39:02;;;;;;;25.17;5.65;;;;;;;;;;6152520;23;20033;-62
2022/05/11 08:41:49;;;;;;;20.13;5.27;;;;;;;;;;6153806;23;20030;-64
2022/05/11 08:44:33;;;;;;;19.00;5.47;;;;;;;;;;6153810;23;20307;-63
2022/05/11 08:47:08;;;;;;;21.77;5.10;;;;;;;;;;6154441;23;20025;-64
2022/05/11 08:49:54;;;;;;;21.58;5.20;;;;;;;;;;6153482;23;20030;-63
2022/05/11 08:52:27;;;;;;;20.35;5.15;;;;;;;;;;6153957;23;20057;-64
2022/05/11 08:55:09;;;;;;;22.27;5.63;;;;;;;;;;6153863;23;20079;-64
2022/05/11 08:57:37;;;;;;;17.50;4.90;;;;;;;;;;6154619;23;20049;-56
2022/05/11 09:00:13;;;;;;;17.55;4.95;;;;;;;;;;6153850;23;20049;-55
2022/05/11 09:02:58;;;;;;;17.40;5.18;;;;;;;;;;6154154;23;20028;-54
2022/05/11 09:05:32;;;;;;;19.08;5.70;;;;;;;;;;6154051;23;20116;-56
2022/05/11 09:08:14;;;;;;;14.43;4.60;;;;;;;;;;6152388;23;20022;-55
2022/05/11 09:10:47;;;;;;;20.55;4.65;;;;;;;;;;6153640;23;20026;-54
2022/05/11 09:13:14;;;;;;;19.50;5.00;;;;;;;;;;6153618;23;20030;-55
2022/05/11 09:15:55;;;;;;;18.20;4.75;;;;;;;;;;6153788;23;20245;-58
2022/05/11 09:18:31;;;;;;;21.70;5.03;;;;;;;;;;6153658;23;20352;-65
2022/05/11 09:20:59;;;;;;;19.25;4.97;;;;;;;;;;6154070;23;20026;-65
2022/05/11 09:23:31;;;;;;;19.38;4.88;;;;;;;;;;6153587;23;20033;-65
2022/05/11 09:26:07;;;;;;;17.83;5.68;;;;;;;;;;6153540;23;20076;-65
2022/05/11 09:28:34;;;;;;;18.08;4.78;;;;;;;;;;6153301;23;20018;-65
2022/05/11 09:31:03;;;;;;;20.45;4.72;;;;;;;;;;6154000;23;20022;-65
2022/05/11 09:33:38;;;;;;;20.15;4.90;;;;;;;;;;6152912;23;20084;-65
2022/05/11 09:36:06;;;;;;;14.80;4.07;;;;;;;;;;6154260;23;20076;-65
2022/05/11 09:39:03;;;;;;;15.45;4.00;;;;;;;;;;6153796;23;20025;-51
2022/05/11 09:41:36;;;;;;;18.27;4.30;;;;;;;;;;6152995;23;20059;-53
2022/05/11 09:44:16;;;;;;;16.55;4.35;;;;;;;;;;6151433;23;20030;-51
2022/05/11 09:46:50;;;;;;;14.90;4.25;;;;;;;;;;6152012;23;20470;-53
2022/05/11 09:49:16;;;;;;;15.70;4.25;;;;;;;;;;6152548;23;20075;-51
2022/05/11 09:51:46;;;;;;;12.55;4.38;;;;;;;;;;6151932;23;20328;-52
2022/05/11 09:54:27;;;;;;;16.13;4.00;;;;;;;;;;6150940;23;20064;-54
2022/05/11 09:56:58;;;;;;;18.08;4.38;;;;;;;;;;6152328;23;20333;-53
2022/05/11 09:59:34;;;;;;;14.80;3.88;;;;;;;;;;6151800;23;20026;-52
2022/05/11 10:02:19;;;;;;;21.33;5.00;;;;;;;;;;6152187;23;20021;-50
2022/05/11 10:05:11;;;;;;;19.15;4.53;;;;;;;;;;6151193;23;20025;-52
2022/05/11 10:07:49;;;;;;;16.77;4.40;;;;;;;;;;6150186;23;20049;-51
2022/05/11 10:10:37;;;;;;;19.63;4.00;;;;;;;;;;6152453;23;20084;-54
2022/05/11 10:13:10;;;;;;;16.40;4.10;;;;;;;;;;6151812;23;20478;-53
2022/05/11 10:24:24;;;;;;;13.50;3.70;;;;;;;;;;6151410;23;20029;-53
2022/05/11 10:27:17;;;;;;;14.15;4.00;;;;;;;;;;6151922;23;20079;-55
2022/05/11 10:29:50;;;;;;;19.02;4.00;;;;;;;;;;6151130;23;20021;-55
2022/05/11 10:32:32;;;;;;;18.30;4.13;;;;;;;;;;6151858;23;20505;-60
2022/05/11 10:35:06;;;;;;;17.00;4.65;;;;;;;;;;6152010;23;20026;-57
2022/05/11 10:37:52;;;;;;;19.08;4.05;;;;;;;;;;6151923;23;20025;-57
2022/05/11 10:40:21;;;;;;;15.68;4.00;;;;;;;;;;6150242;23;20030;-57
2022/05/11 10:43:11;;;;;;;13.65;4.13;;;;;;;;;;6152077;23;20025;-57
2022/05/11 10:45:43;;;;;;;20.15;4.80;;;;;;;;;;6151135;23;20482;-57
2022/05/11 10:48:35;;;;;;;17.65;4.97;;;;;;;;;;6151845;23;20021;-57
2022/05/11 10:51:06;;;;;;;16.38;4.30;;;;;;;;;;6152295;23;20056;-53
2022/05/11 10:54:05;;;;;;;12.93;4.10;;;;;;;;;;6149428;23;20824;-61
2022/05/11 10:56:34;;;;;;;17.92;4.95;;;;;;;;;;6150941;23;20256;-61
2022/05/11 10:59:07;;;;;;;12.38;4.07;;;;;;;;;;6150958;23;20025;-60
2022/05/11 11:01:46;;;;;;;19.55;4.20;;;;;;;;;;6151681;23;20033;-60
2022/05/11 11:04:29;;;;;;;23.50;4.40;;;;;;;;;;6150249;23;20029;-61
2022/05/11 11:07:13;;;;;;;16.83;4.63;;;;;;;;;;6151538;23;20025;-61
2022/05/11 11:10:00;;;;;;;15.38;4.72;;;;;;;;;;6149246;23;20025;-47
2022/05/11 11:12:32;;;;;;;19.88;5.07;;;;;;;;;;6151322;23;20067;-57
2022/05/11 11:15:10;;;;;;;16.27;5.25;;;;;;;;;;6150702;23;20021;-56
2022/05/11 11:17:36;;;;;;;22.98;5.85;;;;;;;;;;6150960;23;20363;-57
2022/05/11 11:20:05;;;;;;;21.47;5.40;;;;;;;;;;6151453;23;20025;-57
2022/05/11 11:22:57;;;;;;;18.80;5.22;;;;;;;;;;6151526;23;20388;-57
2022/05/11 11:25:24;;;;;;;18.55;4.13;;;;;;;;;;6150685;23;20025;-57
2022/05/11 11:28:02;;;;;;;17.05;4.18;;;;;;;;;;6151301;23;20022;-57
2022/05/11 11:30:29;;;;;;;13.68;3.25;;;;;;;;;;6150146;23;20025;-57
2022/05/11 11:33:15;;;;;;;14.75;4.00;;;;;;;;;;6151243;23;20040;-58
2022/05/11 11:35:51;;;;;;;16.48;3.70;;;;;;;;;;6151189;23;20401;-57
2022/05/11 11:38:28;;;;;;;16.20;3.85;;;;;;;;;;6150989;23;20026;-58
2022/05/11 11:41:21;;;;;;;20.08;4.07;;;;;;;;;;6151613;23;20467;-57
2022/05/11 11:43:50;;;;;;;16.50;4.28;;;;;;;;;;6149191;23;20026;-57
2022/05/11 11:46:29;;;;;;;10.90;3.80;;;;;;;;;;6151084;23;20029;-57
2022/05/11 11:49:32;;;;;;;14.75;4.13;;;;;;;;;;6151242;23;20036;-62
2022/05/11 11:52:07;;;;;;;16.40;4.18;;;;;;;;;;6151039;23;20055;-55
2022/05/11 11:54:36;;;;;;;15.82;4.40;;;;;;;;;;6150268;23;20068;-52
2022/05/11 11:57:06;;;;;;;11.40;3.88;;;;;;;;;;6150739;23;20029;-51
2022/05/11 11:59:42;;;;;;;14.30;4.25;;;;;;;;;;6150143;23;20634;-52
2022/05/11 12:02:29;;;;;;;13.90;3.70;;;;;;;;;;6151653;23;20022;-51
2022/05/11 12:05:10;;;;;;;8.45;3.30;;;;;;;;;;6150391;23;20521;-53
2022/05/11 12:16:57;;;;;;;8.10;2.95;;;;;;;;;;6150616;23;20026;-57
2022/05/11 12:19:23;;;;;;;;;;;;;;;;;;6151490;23;20021;-57
2022/05/11 12:22:12;;;;;;;6.72;2.65;;;;;;;;;;6150388;23;20456;-58
2022/05/11 12:24:40;;;;;;;6.93;2.20;;;;;;;;;;6150179;23;20025;-60
2022/05/11 12:27:26;;;;;;;8.07;2.60;;;;;;;;;;6150742;23;20029;-52
2022/05/11 12:29:54;;;;;;;12.43;2.60;;;;;;;;;;6150458;23;20033;-53
2022/05/11 12:32:39;;;;;;;10.70;2.70;;;;;;;;;;6151056;23;20463;-53
2022/05/11 12:35:31;;;;;;;9.82;2.63;;;;;;;;;;6150499;23;20503;-54
2022/05/11 12:38:06;;;;;;;12.20;3.22;;;;;;;;;;6147771;23;20030;-56
2022/05/11 12:40:34;;;;;;;6.35;2.47;;;;;;;;;;6150672;23;20052;-53
2022/05/11 12:43:08;;;;;;;10.52;3.15;;;;;;;;;;6150395;23;20072;-56
2022/05/11 12:45:44;;;;;;;7.90;2.60;;;;;;;;;;6149388;23;20535;-54
2022/05/11 12:48:16;;;;;;;5.55;2.22;;;;;;;;;;6151211;23;20029;-63
2022/05/11 12:50:51;;;;;;;10.60;2.17;;;;;;;;;;6150820;23;20029;-63
2022/05/11 12:53:18;;;;;;;9.07;2.60;;;;;;;;;;6150955;23;20021;-62
2022/05/11 12:55:45;;;;;;;5.95;2.45;;;;;;;;;;6150147;23;20030;-64
2022/05/11 12:58:25;;;;;;;4.70;2.05;;;;;;;;;;6150110;23;20028;-62
2022/05/11 13:00:58;;;;;;;5.55;1.98;;;;;;;;;;6150231;23;20510;-63
2022/05/11 13:03:33;;;;;;;6.45;1.98;;;;;;;;;;6150850;23;20021;-58
2022/05/11 13:06:02;;;;;;;8.82;2.30;;;;;;;;;;6149898;23;20036;-57
2022/05/11 13:08:33;;;;;;;6.22;2.38;;;;;;;;;;6149620;23;20080;-60
2022/05/11 13:11:15;;;;;;;8.57;2.50;;;;;;;;;;6150899;23;20022;-59
2022/05/11 13:13:43;;;;;;;4.18;1.80;;;;;;;;;;6149998;23;20077;-59
2022/05/11 13:16:18;;;;;;;7.50;2.00;;;;;;;;;;6150255;23;20087;-60
2022/05/11 13:18:45;;;;;;;9.57;2.38;;;;;;;;;;6150500;23;20407;-59
2022/05/11 13:21:12;;;;;;;4.90;2.17;;;;;;;;;;6153181;23;20084;-59
2022/05/11 13:23:50;;;;;;;6.80;1.85;;;;;;;;;;6150930;23;20249;-55
2022/05/11 13:26:35;;;;;;;6.85;2.22;;;;;;;;;;6152805;23;20021;-59
2022/05/11 13:29:29;;;;;;;5.25;2.00;;;;;;;;;;6151273;23;20017;-59
2022/05/11 13:32:00;;;;;;;4.55;1.92;;;;;;;;;;6152472;23;20021;-60
2022/05/11 13:34:39;;;;;;;8.07;2.05;;;;;;;;;;6152191;23;20076;-59
2022/05/11 13:37:17;;;;;;;4.45;1.95;;;;;;;;;;6152795;23;20032;-58
2022/05/11 13:39:50;;;;;;;8.70;2.00;;;;;;;;;;6151929;23;20490;-60
2022/05/11 13:42:21;;;;;;;3.67;1.83;;;;;;;;;;6152946;23;20030;-60
2022/05/11 13:44:52;;;;;;;7.93;2.20;;;;;;;;;;6150749;23;20093;-64
2022/05/11 13:50:25;;;;;;;4.85;1.50;;;;;;;;;;6152180;23;20558;-63
2022/05/11 13:53:04;;;;;;;3.25;1.35;;;;;;;;;;6151652;23;20026;-62
2022/05/11 13:55:37;;;;;;;4.82;1.85;;;;;;;;;;6151669;23;20084;-63
2022/05/11 13:58:20;;;;;;;5.90;1.73;;;;;;;;;;6152692;23;20025;-63
2022/05/11 14:00:47;;;;;;;4.63;2.15;;;;;;;;;;6152210;23;20416;-65
2022/05/11 14:03:22;;;;;;;3.70;1.50;;;;;;;;;;6152600;23;20025;-56
2022/05/11 14:05:49;;;;;;;3.95;1.80;;;;;;;;;;6150717;23;20021;-59
2022/05/11 14:08:15;;;;;;;5.90;1.70;;;;;;;;;;6150082;23;20029;-58
2022/05/11 14:10:51;;;;;;;5.20;2.00;;;;;;;;;;6151691;23;20025;-57
2022/05/11 14:13:17;;;;;;;6.05;2.13;;;;;;;;;;6151608;23;20471;-57
2022/05/11 14:15:44;;;;;;;4.93;2.42;;;;;;;;;;6150277;23;20092;-58
2022/05/11 14:18:20;;;;;;;4.20;2.30;;;;;;;;;;6151963;23;20364;-57
2022/05/11 14:20:49;;;;;;;7.47;2.50;;;;;;;;;;6151594;23;20411;-60
2022/05/11 14:23:16;;;;;;;6.93;3.08;;;;;;;;;;6152194;23;20072;-64
2022/05/11 14:25:49;;;;;;;7.70;3.40;;;;;;;;;;6151121;23;20036;-64
2022/05/11 14:28:21;;;;;;;12.57;3.35;;;;;;;;;;6151967;23;20029;-63
2022/05/11 14:30:48;;;;;;;10.35;3.00;;;;;;;;;;6151033;23;20029;-63
2022/05/11 14:33:22;;;;;;;9.82;3.13;;;;;;;;;;6151196;23;20048;-63
2022/05/11 14:35:49;;;;;;;9.30;3.40;;;;;;;;;;6151588;23;20456;-64
2022/05/11 14:38:15;;;;;;;7.05;3.63;;;;;;;;;;6151259;23;20533;-63
2022/05/11 14:40:48;;;;;;;7.93;4.20;;;;;;;;;;6151392;23;20446;-62
2022/05/11 14:43:18;;;;;;;9.55;3.88;;;;;;;;;;6152411;23;20356;-58
2022/05/11 14:45:46;;;;;;;5.38;3.78;;;;;;;;;;6149198;23;20710;-56
2022/05/11 14:48:24;;;;;;;11.38;4.60;;;;;;;;;;6150708;23;20025;-55
2022/05/11 14:50:50;;;;;;;12.38;4.47;;;;;;;;;;6149901;23;20072;-57
2022/05/11 14:53:17;;;;;;;10.07;4.43;;;;;;;;;;6150901;23;20018;-56
2022/05/11 14:55:50;;;;;;;14.68;4.70;;;;;;;;;;6150610;23;20543;-58
2022/05/11 15:04:01;;;;;;;14.35;4.82;;;;;;;;;;6150764;23;20116;-59
2022/05/11 15:06:40;;;;;;;15.93;5.82;;;;;;;;;;6150691;23;20021;-59
2022/05/11 15:09:14;;;;;;;16.50;5.88;;;;;;;;;;6148370;23;20541;-59
2022/05/11 15:14:40;;;;;;;20.08;6.53;;;;;;;;;;6149827;23;20080;-58
2022/05/11 15:17:24;;;;;;;19.65;7.13;;;;;;;;;;6151030;23;20084;-58
2022/05/11 15:20:12;;;;;;;21.38;7.10;;;;;;;;;;6151018;23;20100;-55
2022/05/11 15:22:46;;;;;;;17.42;6.60;;;;;;;;;;6149549;23;20033;-59
2022/05/11 15:25:13;;;;;;;22.73;7.87;;;;;;;;;;6151271;23;20112;-60
2022/05/11 15:27:39;;;;;;;15.88;6.85;;;;;;;;;;6150463;23;20029;-59
2022/05/11 15:30:17;;;;;;;18.10;6.85;;;;;;;;;;6150974;23;20057;-59
2022/05/11 15:32:44;;;;;;;16.35;6.13;;;;;;;;;;6148644;23;20044;-59
2022/05/11 15:35:12;;;;;;;19.05;6.57;;;;;;;;;;6150222;23;20029;-59
2022/05/11 15:37:46;;;;;;;17.65;6.43;;;;;;;;;;6151139;23;20025;-55
2022/05/11 15:40:12;;;;;;;17.02;6.57;;;;;;;;;;6150723;23;20037;-58
2022/05/11 15:42:41;;;;;;;20.25;7.13;;;;;;;;;;6150615;23;20017;-56
2022/05/11 15:45:14;;;;;;;10.77;7.10;;;;;;;;;;6150224;23;20029;-56
2022/05/11 15:47:41;;;;;;;20.20;6.40;;;;;;;;;;6150521;23;20048;-55
2022/05/11 15:50:08;;;;;;;14.82;5.88;;;;;;;;;;6151226;23;20080;-57
2022/05/11 15:52:43;;;;;;;17.95;6.22;;;;;;;;;;6149426;23;20791;-57
2022/05/11 15:55:11;;;;;;;17.40;4.85;;;;;;;;;;6149878;23;20021;-59